Etusivu
METAR-TAF:

METAR-TAF

Lentoasemat :

Såtenäs, Ruotsi

F 7 Såtenäs

Leveyspiiri: 58-26N, Pituuspiiri: 012-42E, korkeus merenpinnasta: 54 m

Tämänhetkinen sää

Tämä raportti tehtiin 27 minuuttia sitten, kello 18.20 UTC
Tuuli 4 kn idästä/koillisesta
Lämpötila 21°C
Kosteus 69%
Ilmanpaine 1018 hPa
Näkyvyys 10 km tai enemmän

METAR: ESIB 221820Z AUTO 07004KT 9999 NCD 21/15 Q1018

Aika: 20:47 (18:47 UTC)

Sääennuste

Tämä raportti tehtiin 10 tuntia ja 17 minuuttia sitten, kello 08.30 UTC
Ennuste voimassa 22. päivästä klo 09 UTC - 22. päivään klo 14 UTC
Tuuli 5 kn idästä
Näkyvyys 10 km tai enemmän
ei pilviä alle 1500 m:ssä eikä cumulonimbus-pilviä

TAF: ESIB 220830Z 2209/2214 10005KT CAVOK

Säähavainnot ja -ennusteet yli 4000 lentoasemalta (METAR- ja TAF-raportit).

Käytössä olevat sääasemat on merkitty karttaan keltaisilla ja punaisilla pisteillä.

Aseta hiiri pisteen päälle nähdäksesi sääaseman nimen.

Klikkaa sitten nähdäksesi säähavainnot ja -ennusteet.

Kartan vaihtaminen: klikkaa mustalla rastilla varustettuja vihreitä pisteitä, niin voit zoomata sisään; viivalla varustettua vihreää pistettä, niin voit zoomata ulos tai vihreitä nuolia, niin pääset viereisille kartoille.


METAR-TAF: